createdAt,value
2024-01-29T00:02:10.866Z,102370.28
2024-01-29T00:04:38.163Z,102374.72
2024-01-29T00:07:05.401Z,102377.19
2024-01-29T00:09:32.550Z,102375.41
2024-01-29T00:11:59.813Z,102373.63
2024-01-29T00:14:26.997Z,102362.41
2024-01-29T00:16:54.082Z,102364.06
2024-01-29T00:19:21.286Z,102362.88
2024-01-29T00:21:48.626Z,102369.00
2024-01-29T00:24:15.818Z,102367.22
2024-01-29T00:26:42.993Z,102362.09
2024-01-29T00:29:10.973Z,102367.22
2024-01-29T00:31:38.046Z,102368.09
2024-01-29T00:34:05.336Z,102360.50
2024-01-29T00:36:32.616Z,102358.53
2024-01-29T00:38:59.854Z,102357.66
2024-01-29T00:41:27.092Z,102359.41
2024-01-29T00:43:54.248Z,102364.66
2024-01-29T00:46:21.358Z,102361.09
2024-01-29T00:48:48.935Z,102361.09
2024-01-29T00:51:16.197Z,102355.19
2024-01-29T00:53:43.337Z,102348.28
2024-01-29T00:56:10.643Z,102342.16
2024-01-29T00:58:37.835Z,102348.59
2024-01-29T01:01:04.976Z,102350.16
2024-01-29T01:03:32.271Z,102346.72
2024-01-29T01:05:59.542Z,102353.50
2024-01-29T01:08:26.681Z,102363.19
2024-01-29T01:10:53.817Z,102368.19
2024-01-29T01:13:20.924Z,102361.31
2024-01-29T01:15:48.052Z,102365.34
2024-01-29T01:18:15.202Z,102366.31
2024-01-29T01:20:42.290Z,102374.81
2024-01-29T01:23:09.369Z,102366.22
2024-01-29T01:25:36.491Z,102368.69
2024-01-29T01:28:03.938Z,102370.28
2024-01-29T01:30:31.263Z,102381.53
2024-01-29T01:32:58.496Z,102378.19
2024-01-29T01:35:25.621Z,102377.19
2024-01-29T01:37:53.330Z,102384.78
2024-01-29T01:40:20.784Z,102388.22
2024-01-29T01:42:49.223Z,102388.22
2024-01-29T01:45:16.426Z,102393.72
2024-01-29T01:47:44.251Z,102394.50
2024-01-29T01:50:11.923Z,102394.28
2024-01-29T01:52:41.368Z,102395.66
2024-01-29T01:55:08.701Z,102404.13
2024-01-29T01:57:38.786Z,102415.97
2024-01-29T02:00:06.860Z,102413.97
2024-01-29T02:02:34.749Z,102404.59
2024-01-29T02:05:02.052Z,102409.72
2024-01-29T02:07:29.379Z,102398.59
2024-01-29T02:09:57.603Z,102404.50
2024-01-29T02:12:24.746Z,102394.34
2024-01-29T02:14:53.165Z,102402.16
2024-01-29T02:17:20.382Z,102409.25
2024-01-29T02:19:47.705Z,102406.00
2024-01-29T02:22:14.996Z,102401.00
2024-01-29T02:24:43.491Z,102405.44
2024-01-29T02:27:10.633Z,102407.91
2024-01-29T02:29:37.928Z,102404.53
2024-01-29T02:32:05.609Z,102396.06
2024-01-29T02:34:32.904Z,102399.53
2024-01-29T02:37:00.295Z,102397.44
2024-01-29T02:39:27.460Z,102396.25
2024-01-29T02:41:54.592Z,102400.16
2024-01-29T02:44:21.746Z,102395.53
2024-01-29T02:46:49.134Z,102398.63
2024-01-29T02:49:16.384Z,102397.31
2024-01-29T02:51:43.700Z,102396.91
2024-01-29T02:54:10.795Z,102393.13
2024-01-29T02:56:37.948Z,102393.81
2024-01-29T02:59:05.077Z,102387.00
2024-01-29T03:01:32.314Z,102391.16
2024-01-29T03:03:59.577Z,102392.59
2024-01-29T03:06:26.913Z,102404.88
2024-01-29T03:08:54.117Z,102404.34
2024-01-29T03:11:21.259Z,102404.03
2024-01-29T03:13:49.101Z,102407.03
2024-01-29T03:16:16.423Z,102402.34
2024-01-29T03:18:43.925Z,102351.19
2024-01-29T03:21:11.418Z,102407.81
2024-01-29T03:23:38.898Z,102408.59
2024-01-29T03:26:06.158Z,102412.84
2024-01-29T03:28:33.323Z,102417.06
2024-01-29T03:31:00.478Z,102393.38
2024-01-29T03:33:27.822Z,102400.59
2024-01-29T03:35:55.011Z,102397.16
2024-01-29T03:38:22.532Z,102407.16
2024-01-29T03:40:49.775Z,102415.94
2024-01-29T03:43:17.107Z,102405.50
2024-01-29T03:45:44.533Z,102417.41
2024-01-29T03:48:11.950Z,102420.63
2024-01-29T03:50:39.286Z,102410.38
2024-01-29T03:53:06.443Z,102418.31
2024-01-29T03:55:33.840Z,102422.31
2024-01-29T03:58:01.350Z,102430.31
2024-01-29T04:00:30.819Z,102423.06
2024-01-29T04:02:58.217Z,102424.28
2024-01-29T04:05:25.695Z,102425.38
2024-01-29T04:07:53.314Z,102418.00
2024-01-29T04:10:20.799Z,102415.91
2024-01-29T04:12:48.686Z,102426.91
2024-01-29T04:15:15.796Z,102419.41
2024-01-29T04:17:42.973Z,102424.53
2024-01-29T04:20:10.790Z,102397.41
2024-01-29T04:22:37.916Z,102411.44
2024-01-29T04:25:07.710Z,102396.09
2024-01-29T04:27:35.045Z,102403.00
2024-01-29T04:30:04.005Z,102395.91
2024-01-29T04:32:31.276Z,102393.91
2024-01-29T04:34:58.589Z,102392.34
2024-01-29T04:37:26.054Z,102386.22
2024-01-29T04:39:54.439Z,102383.22
2024-01-29T04:42:22.123Z,102399.69
2024-01-29T04:44:49.336Z,102396.34
2024-01-29T04:47:16.619Z,102386.78
2024-01-29T04:49:43.699Z,102393.91
2024-01-29T04:52:10.867Z,102404.03
2024-01-29T04:54:38.997Z,102401.22
2024-01-29T04:57:06.144Z,102405.47
2024-01-29T04:59:33.189Z,102392.69
2024-01-29T05:02:00.363Z,102385.78
2024-01-29T05:04:27.631Z,102383.13
2024-01-29T05:06:55.019Z,102380.09
2024-01-29T05:09:22.275Z,102384.66
2024-01-29T05:11:49.570Z,102376.31
2024-01-29T05:14:16.788Z,102378.97
2024-01-29T05:16:43.905Z,102369.97
2024-01-29T05:19:11.151Z,102386.34
2024-01-29T05:21:38.336Z,102378.13
2024-01-29T05:24:05.880Z,102378.56
2024-01-29T05:26:33.013Z,102382.81
2024-01-29T05:29:00.144Z,102393.25
2024-01-29T05:31:27.267Z,102397.81
2024-01-29T05:33:54.569Z,102391.03
2024-01-29T05:36:22.082Z,102391.16
2024-01-29T05:38:49.255Z,102390.59
2024-01-29T05:41:16.691Z,102386.69
2024-01-29T05:43:43.857Z,102396.28
2024-01-29T05:46:11.056Z,102400.50
2024-01-29T05:48:38.408Z,102394.84
2024-01-29T05:51:05.703Z,102393.38
2024-01-29T05:53:33.035Z,102397.81
2024-01-29T05:56:00.219Z,102403.16
2024-01-29T05:58:29.534Z,102411.06
2024-01-29T06:00:56.691Z,102420.41
2024-01-29T06:03:24.368Z,102410.38
2024-01-29T06:05:51.740Z,102404.41
2024-01-29T06:08:19.129Z,102415.59
2024-01-29T06:10:48.003Z,102410.50
2024-01-29T06:13:16.732Z,102408.84
2024-01-29T06:15:43.953Z,102412.94
2024-01-29T06:18:11.164Z,102414.72
2024-01-29T06:20:38.530Z,102426.66
2024-01-29T06:23:06.016Z,102414.41
2024-01-29T06:25:33.144Z,102428.41
2024-01-29T06:28:00.235Z,102429.66
2024-01-29T06:30:27.367Z,102422.75
2024-01-29T06:32:54.664Z,102425.75
2024-01-29T06:35:23.669Z,102428.41
2024-01-29T06:37:50.838Z,102436.00
2024-01-29T06:40:18.454Z,102428.66
2024-01-29T06:42:45.577Z,102441.34
2024-01-29T06:45:12.702Z,102443.00
2024-01-29T06:47:40.302Z,102445.78
2024-01-29T06:50:07.876Z,102442.91
2024-01-29T06:52:35.080Z,102437.88
2024-01-29T06:55:02.328Z,102440.56
2024-01-29T06:57:29.522Z,102447.56
2024-01-29T06:59:56.674Z,102454.25
2024-01-29T07:02:24.916Z,102456.03
2024-01-29T07:04:52.433Z,102448.44
2024-01-29T07:07:19.710Z,102441.34
2024-01-29T07:09:46.921Z,102452.69
2024-01-29T07:12:17.125Z,102461.06
2024-01-29T07:14:44.416Z,102450.91
2024-01-29T07:17:11.574Z,102449.13
2024-01-29T07:19:39.347Z,102457.16
2024-01-29T07:22:09.993Z,102451.13
2024-01-29T07:24:37.683Z,102451.59
2024-01-29T07:27:05.421Z,102463.03
2024-01-29T07:29:33.194Z,102463.03
2024-01-29T07:32:00.492Z,102470.81
2024-01-29T07:34:27.943Z,102476.19
2024-01-29T07:36:55.188Z,102483.09
2024-01-29T07:39:22.392Z,102480.97
2024-01-29T07:41:49.616Z,102483.63
2024-01-29T07:44:17.933Z,102488.75
2024-01-29T07:46:45.038Z,102489.75
2024-01-29T07:49:13.468Z,102485.66
2024-01-29T07:51:44.003Z,102488.97
2024-01-29T07:54:11.455Z,102493.19
2024-01-29T07:56:41.028Z,102488.06
2024-01-29T07:59:08.236Z,102474.94
2024-01-29T08:01:36.236Z,102473.03
2024-01-29T08:04:04.686Z,102487.19
2024-01-29T08:06:33.173Z,102487.19
2024-01-29T08:09:00.453Z,102480.28
2024-01-29T08:11:27.786Z,102485.84
2024-01-29T08:13:55.498Z,102492.75
2024-01-29T08:16:22.756Z,102500.44
2024-01-29T08:18:50.454Z,102506.91
2024-01-29T08:21:18.971Z,102505.13
2024-01-29T08:23:46.922Z,102505.56
2024-01-29T08:26:14.098Z,102498.78
2024-01-29T08:28:41.364Z,102499.75
2024-01-29T08:31:10.692Z,102492.28
2024-01-29T08:33:43.410Z,102500.09
2024-01-29T08:36:10.695Z,102485.63
2024-01-29T08:38:37.848Z,102486.72
2024-01-29T08:41:04.993Z,102501.84
2024-01-29T08:43:32.132Z,102483.91
2024-01-29T08:45:59.464Z,102498.94
2024-01-29T08:48:28.009Z,102475.84
2024-01-29T08:50:55.398Z,102488.00
2024-01-29T08:53:22.511Z,102482.66
2024-01-29T08:55:50.120Z,102488.75
2024-01-29T08:58:17.829Z,102475.16
2024-01-29T09:00:45.092Z,102498.88
2024-01-29T09:03:12.322Z,102499.09
2024-01-29T09:05:40.554Z,102488.59
2024-01-29T09:08:13.330Z,102505.41
2024-01-29T09:10:46.319Z,102497.91
2024-01-29T09:13:15.294Z,102506.41
2024-01-29T09:15:42.646Z,102504.63
2024-01-29T09:18:09.975Z,102519.25
2024-01-29T09:20:37.237Z,102522.78
2024-01-29T09:23:04.600Z,102521.31
2024-01-29T09:25:31.752Z,102524.22
2024-01-29T09:27:59.307Z,102523.97
2024-01-29T09:30:26.562Z,102512.34
2024-01-29T09:32:57.511Z,102509.97
2024-01-29T09:35:30.081Z,102506.59
2024-01-29T09:37:57.980Z,102512.06
2024-01-29T09:40:25.199Z,102512.28
2024-01-29T09:42:56.024Z,102504.50
2024-01-29T09:45:26.606Z,102511.13
2024-01-29T09:47:55.387Z,102506.16
2024-01-29T09:50:27.118Z,102507.72
2024-01-29T09:52:58.084Z,102514.66
2024-01-29T09:55:28.792Z,102517.91
2024-01-29T09:57:56.382Z,102526.22
2024-01-29T10:00:23.889Z,102523.44
2024-01-29T10:02:55.047Z,102517.34
2024-01-29T10:05:22.569Z,102528.41
2024-01-29T10:07:51.194Z,102523.19
2024-01-29T10:10:19.827Z,102519.50
2024-01-29T10:12:47.036Z,102522.25
2024-01-29T10:15:14.279Z,102525.72
2024-01-29T10:17:41.407Z,102525.38
2024-01-29T10:20:21.514Z,102529.69
2024-01-29T10:22:49.921Z,102526.59
2024-01-29T10:25:17.419Z,102528.66
2024-01-29T10:27:46.402Z,102535.34
2024-01-29T10:30:14.982Z,102540.06
2024-01-29T10:32:42.258Z,102549.31
2024-01-29T10:35:09.680Z,102544.00
2024-01-29T10:37:36.946Z,102544.19
2024-01-29T10:40:06.216Z,102555.81
2024-01-29T10:42:34.450Z,102549.16
2024-01-29T10:45:02.925Z,102552.44
2024-01-29T10:47:33.259Z,102556.09
2024-01-29T10:50:01.647Z,102569.78
2024-01-29T10:52:31.028Z,102564.63
2024-01-29T10:55:00.316Z,102568.09
2024-01-29T10:57:30.371Z,102555.16
2024-01-29T10:59:59.473Z,102555.50
2024-01-29T11:02:28.438Z,102546.97
2024-01-29T11:04:55.680Z,102553.19
2024-01-29T11:07:26.417Z,102550.06
2024-01-29T11:10:07.770Z,102550.34
2024-01-29T11:12:36.904Z,102543.84
2024-01-29T11:15:06.252Z,102552.13
2024-01-29T11:17:33.449Z,102549.69
2024-01-29T11:20:12.298Z,102553.59
2024-01-29T11:22:41.920Z,102542.38
2024-01-29T11:25:14.022Z,102540.31
2024-01-29T11:27:43.186Z,102535.69
2024-01-29T11:30:20.778Z,102536.97
2024-01-29T11:32:50.096Z,102539.72
2024-01-29T11:35:32.287Z,102547.88
2024-01-29T11:38:15.292Z,102542.25
2024-01-29T11:40:44.047Z,102543.66
2024-01-29T11:43:19.167Z,102540.47
2024-01-29T11:45:54.488Z,102526.91
2024-01-29T11:48:25.322Z,102527.47
2024-01-29T11:50:54.800Z,102532.69
2024-01-29T11:53:27.215Z,102539.03
2024-01-29T11:55:55.419Z,102534.09
2024-01-29T11:58:24.269Z,102529.50
2024-01-29T12:00:53.779Z,102529.72
2024-01-29T12:03:25.629Z,102527.22
2024-01-29T12:05:53.398Z,102524.94
2024-01-29T12:08:22.663Z,102522.53
2024-01-29T12:10:50.150Z,102524.44
2024-01-29T12:13:20.943Z,102518.94
2024-01-29T12:15:51.922Z,102515.78
2024-01-29T12:18:23.732Z,102515.34
2024-01-29T12:20:51.639Z,102514.84
2024-01-29T12:23:22.480Z,102513.38
2024-01-29T12:25:57.296Z,102522.16
2024-01-29T12:28:29.594Z,102519.81
2024-01-29T12:31:02.467Z,102511.53
2024-01-29T12:33:33.603Z,102521.28
2024-01-29T12:36:15.916Z,102508.59
2024-01-29T12:38:45.882Z,102515.91
2024-01-29T12:41:13.218Z,102513.00
2024-01-29T12:43:41.594Z,102516.84
2024-01-29T12:46:13.660Z,102512.84
2024-01-29T12:48:42.610Z,102503.59
2024-01-29T12:51:14.679Z,102510.06
2024-01-29T12:53:43.851Z,102515.69
2024-01-29T12:56:11.241Z,102507.16
2024-01-29T12:58:39.249Z,102511.94
2024-01-29T13:01:06.859Z,102510.63
2024-01-29T13:03:34.654Z,102510.91
2024-01-29T13:06:03.852Z,102513.75
2024-01-29T13:08:32.043Z,102514.66
2024-01-29T13:11:00.537Z,102520.38
2024-01-29T13:13:28.402Z,102511.94
2024-01-29T13:15:56.215Z,102515.53
2024-01-29T13:18:24.372Z,102503.50
2024-01-29T13:20:51.530Z,102511.38
2024-01-29T13:23:18.690Z,102505.25
2024-01-29T13:25:45.861Z,102500.13
2024-01-29T13:28:13.175Z,102499.34
2024-01-29T13:30:40.669Z,102485.53
2024-01-29T13:33:08.298Z,102483.25
2024-01-29T13:35:35.563Z,102493.75
2024-01-29T13:38:02.769Z,102493.81
2024-01-29T13:40:29.905Z,102474.81
2024-01-29T13:42:57.927Z,102484.34
2024-01-29T13:45:26.095Z,102487.81
2024-01-29T13:47:54.418Z,102482.88
2024-01-29T13:50:21.814Z,102479.59
2024-01-29T13:52:49.009Z,102482.19
2024-01-29T13:55:16.592Z,102486.75
2024-01-29T13:57:43.981Z,102493.75
2024-01-29T14:00:12.127Z,102492.78
2024-01-29T14:02:39.501Z,102496.91
2024-01-29T14:05:06.947Z,102488.94
2024-01-29T14:07:34.267Z,102490.75
2024-01-29T14:10:02.012Z,102501.84
2024-01-29T14:12:29.386Z,102498.03
2024-01-29T14:14:57.882Z,102500.59
2024-01-29T14:17:25.480Z,102499.78
2024-01-29T14:19:56.563Z,102484.00
2024-01-29T14:22:25.706Z,102502.19
2024-01-29T14:24:53.497Z,102500.16
2024-01-29T14:27:21.391Z,102504.50
2024-01-29T14:29:49.583Z,102506.00
2024-01-29T14:32:17.110Z,102512.88
2024-01-29T14:34:44.990Z,102499.78
2024-01-29T14:37:12.788Z,102505.78
2024-01-29T14:39:40.638Z,102508.91
2024-01-29T14:42:08.003Z,102506.75
2024-01-29T14:44:35.763Z,102501.56
2024-01-29T14:47:03.777Z,102505.94
2024-01-29T14:49:31.140Z,102511.03
2024-01-29T14:51:58.699Z,102504.06
2024-01-29T14:54:26.789Z,102501.28
2024-01-29T14:56:54.580Z,102508.88
2024-01-29T14:59:22.160Z,102510.38
2024-01-29T15:01:49.801Z,102524.13
2024-01-29T15:04:17.693Z,102524.03
2024-01-29T15:06:45.098Z,102523.84
2024-01-29T15:09:12.583Z,102527.84
2024-01-29T15:11:39.920Z,102525.09
2024-01-29T15:14:07.239Z,102537.97
2024-01-29T15:16:34.378Z,102530.91
2024-01-29T15:19:01.816Z,102537.69
2024-01-29T15:21:29.275Z,102540.13
2024-01-29T15:23:56.527Z,102539.16
2024-01-29T15:26:25.436Z,102545.19
2024-01-29T15:28:52.723Z,102546.72
2024-01-29T15:31:20.502Z,102548.28
2024-01-29T15:33:51.530Z,102547.38
2024-01-29T15:36:20.300Z,102550.66
2024-01-29T15:38:48.046Z,102546.13
2024-01-29T15:41:18.896Z,102545.09
2024-01-29T15:43:46.601Z,102544.78
2024-01-29T15:46:13.928Z,102548.94
2024-01-29T15:48:41.264Z,102550.47
2024-01-29T15:51:08.550Z,102552.91
2024-01-29T15:53:37.539Z,102554.53
2024-01-29T15:56:05.013Z,102552.66
2024-01-29T15:58:32.372Z,102557.78
2024-01-29T16:00:59.918Z,102556.81
2024-01-29T16:03:27.226Z,102545.94
2024-01-29T16:05:54.457Z,102555.53
2024-01-29T16:08:21.530Z,102556.28
2024-01-29T16:10:49.047Z,102547.41
2024-01-29T16:13:16.401Z,102560.09
2024-01-29T16:15:43.705Z,102557.38
2024-01-29T16:18:10.994Z,102559.78
2024-01-29T16:20:42.445Z,102558.75
2024-01-29T16:23:09.872Z,102562.69
2024-01-29T16:25:37.838Z,102559.06
2024-01-29T16:28:07.556Z,102566.81
2024-01-29T16:30:36.526Z,102557.06
2024-01-29T16:33:04.308Z,102557.06
2024-01-29T16:35:31.664Z,102569.09
2024-01-29T16:37:58.984Z,102570.81
2024-01-29T16:40:27.556Z,102565.63
2024-01-29T16:42:54.913Z,102570.63
2024-01-29T16:45:22.567Z,102573.94
2024-01-29T16:47:49.851Z,102574.75
2024-01-29T16:50:17.343Z,102580.66
2024-01-29T16:52:45.403Z,102582.19
2024-01-29T16:55:12.708Z,102584.66
2024-01-29T16:57:40.241Z,102587.09
2024-01-29T17:00:08.893Z,102586.94
2024-01-29T17:02:36.058Z,102570.00
2024-01-29T17:05:04.169Z,102584.69
2024-01-29T17:07:31.840Z,102582.59
2024-01-29T17:09:59.188Z,102577.41
2024-01-29T17:12:26.454Z,102581.59
2024-01-29T17:14:53.623Z,102576.13
2024-01-29T17:17:20.828Z,102579.31
2024-01-29T17:19:48.477Z,102576.25
2024-01-29T17:22:15.834Z,102563.44
2024-01-29T17:24:44.941Z,102575.38
2024-01-29T17:27:12.203Z,102575.13
2024-01-29T17:29:39.932Z,102571.66
2024-01-29T17:32:07.331Z,102559.16
2024-01-29T17:34:38.977Z,102563.13
2024-01-29T17:37:06.691Z,102577.09
2024-01-29T17:39:33.975Z,102572.59
2024-01-29T17:42:04.180Z,102572.50
2024-01-29T17:44:31.524Z,102573.38
2024-01-29T17:46:58.975Z,102571.53
2024-01-29T17:49:26.257Z,102574.03
2024-01-29T17:51:53.446Z,102579.91
2024-01-29T17:54:21.087Z,102562.53
2024-01-29T17:56:48.755Z,102549.25
2024-01-29T17:59:15.946Z,102556.19
2024-01-29T18:01:43.207Z,102559.00
2024-01-29T18:04:10.662Z,102558.91
2024-01-29T18:06:51.003Z,102556.50
2024-01-29T18:09:18.614Z,102552.16
2024-01-29T18:11:47.148Z,102549.38
2024-01-29T18:14:14.852Z,102557.22
2024-01-29T18:16:42.134Z,102556.44
2024-01-29T18:19:09.896Z,102562.38
2024-01-29T18:21:40.714Z,102542.94
2024-01-29T18:24:08.356Z,102554.47
2024-01-29T18:26:36.444Z,102557.03
2024-01-29T18:29:03.676Z,102552.69
2024-01-29T18:31:30.760Z,102548.19
2024-01-29T18:33:58.103Z,102551.09
2024-01-29T18:36:26.550Z,102559.81
2024-01-29T18:38:53.854Z,102554.47
2024-01-29T18:41:24.766Z,102567.44
2024-01-29T18:43:52.428Z,102556.25
2024-01-29T18:46:20.014Z,102558.56
2024-01-29T18:48:49.527Z,102554.13
2024-01-29T18:51:30.949Z,102548.09
2024-01-29T18:54:00.702Z,102548.91
2024-01-29T18:56:29.341Z,102555.00
2024-01-29T18:58:57.511Z,102551.28
2024-01-29T19:01:25.723Z,102553.94
2024-01-29T19:03:54.148Z,102553.78
2024-01-29T19:06:21.837Z,102557.16
2024-01-29T19:08:49.182Z,102555.38
2024-01-29T19:11:16.320Z,102545.88
2024-01-29T19:13:43.523Z,102557.25
2024-01-29T19:16:10.733Z,102558.03
2024-01-29T19:18:37.946Z,102554.31
2024-01-29T19:21:07.826Z,102559.66
2024-01-29T19:23:35.084Z,102562.13
2024-01-29T19:26:02.751Z,102560.53
2024-01-29T19:28:30.003Z,102553.69
2024-01-29T19:30:57.892Z,102550.69
2024-01-29T19:33:25.500Z,102554.31
2024-01-29T19:35:53.998Z,102542.94
2024-01-29T19:38:23.405Z,102548.44
2024-01-29T19:40:50.828Z,102550.03
2024-01-29T19:43:18.661Z,102543.28
2024-01-29T19:45:46.074Z,102541.50
2024-01-29T19:48:13.478Z,102534.50
2024-01-29T19:50:40.703Z,102535.75
2024-01-29T19:53:07.899Z,102525.31
2024-01-29T19:55:35.040Z,102527.22
2024-01-29T19:58:02.493Z,102531.56
2024-01-29T20:00:29.661Z,102527.28
2024-01-29T20:03:00.332Z,102527.47
2024-01-29T20:05:27.608Z,102532.72
2024-01-29T20:07:54.890Z,102519.81
2024-01-29T20:10:22.340Z,102520.22
2024-01-29T20:12:50.983Z,102518.56
2024-01-29T20:15:19.885Z,102519.59
2024-01-29T20:17:47.185Z,102517.03
2024-01-29T20:20:14.462Z,102524.91
2024-01-29T20:22:41.641Z,102518.88
2024-01-29T20:25:09.171Z,102520.59
2024-01-29T20:27:36.602Z,102530.00
2024-01-29T20:30:04.100Z,102525.97
2024-01-29T20:32:31.354Z,102526.97
2024-01-29T20:34:58.731Z,102518.09
2024-01-29T20:37:26.002Z,102522.53
2024-01-29T20:39:53.286Z,102519.06
2024-01-29T20:42:20.397Z,102519.75
2024-01-29T20:44:47.508Z,102520.47
2024-01-29T20:47:14.719Z,102520.41
2024-01-29T20:49:41.899Z,102491.91
2024-01-29T20:52:09.089Z,102520.47
2024-01-29T20:54:39.503Z,102524.78
2024-01-29T20:57:06.629Z,102511.75
2024-01-29T20:59:33.840Z,102521.47
2024-01-29T21:02:01.870Z,102516.31
2024-01-29T21:04:29.387Z,102518.97
2024-01-29T21:06:59.408Z,102510.34
2024-01-29T21:09:26.621Z,102512.84
2024-01-29T21:11:53.743Z,102520.13
2024-01-29T21:14:20.836Z,102521.88
2024-01-29T21:16:48.570Z,102520.19
2024-01-29T21:19:15.804Z,102517.63
2024-01-29T21:21:47.684Z,102515.03
2024-01-29T21:24:14.881Z,102514.25
2024-01-29T21:26:42.025Z,102509.63
2024-01-29T21:29:09.285Z,102508.09
2024-01-29T21:31:36.364Z,102502.94
2024-01-29T21:34:03.653Z,102508.34
2024-01-29T21:36:30.795Z,102513.50
2024-01-29T21:38:58.040Z,102509.22
2024-01-29T21:41:25.341Z,102504.78
2024-01-29T21:43:52.768Z,102510.03
2024-01-29T21:46:20.176Z,102504.06
2024-01-29T21:48:47.497Z,102517.94
2024-01-29T21:51:14.652Z,102507.81
2024-01-29T21:53:41.769Z,102505.31
2024-01-29T21:56:09.163Z,102508.06
2024-01-29T21:58:36.372Z,102512.38
2024-01-29T22:01:03.925Z,102509.91
2024-01-29T22:03:34.149Z,102494.19
2024-01-29T22:06:01.466Z,102501.53
2024-01-29T22:08:30.501Z,102504.84
2024-01-29T22:10:57.798Z,102501.53
2024-01-29T22:13:25.627Z,102507.72
2024-01-29T22:15:53.267Z,102505.34
2024-01-29T22:18:20.417Z,102508.78
2024-01-29T22:20:47.548Z,102504.84
2024-01-29T22:23:14.709Z,102503.97
2024-01-29T22:25:41.862Z,102504.66
2024-01-29T22:28:09.079Z,102506.28
2024-01-29T22:30:36.395Z,102509.91
2024-01-29T22:33:03.753Z,102516.75
2024-01-29T22:35:30.990Z,102514.91
2024-01-29T22:37:58.111Z,102518.13
2024-01-29T22:40:25.719Z,102515.28
2024-01-29T22:42:53.246Z,102514.25
2024-01-29T22:45:20.465Z,102514.00
2024-01-29T22:47:47.645Z,102508.91
2024-01-29T22:50:14.764Z,102520.28
2024-01-29T22:52:44.872Z,102517.63
2024-01-29T22:55:12.925Z,102514.13
2024-01-29T22:57:40.508Z,102507.31
2024-01-29T23:00:17.464Z,102510.75
2024-01-29T23:02:44.796Z,102516.03
2024-01-29T23:05:13.014Z,102509.22
2024-01-29T23:07:43.777Z,102510.94
2024-01-29T23:10:11.279Z,102502.16
2024-01-29T23:12:39.235Z,102497.97
2024-01-29T23:15:07.320Z,102493.59
2024-01-29T23:17:34.600Z,102488.44
2024-01-29T23:20:02.169Z,102490.22
2024-01-29T23:22:29.981Z,102486.00
2024-01-29T23:24:57.131Z,102492.16
2024-01-29T23:27:24.389Z,102491.09
2024-01-29T23:29:51.736Z,102491.66
2024-01-29T23:32:18.867Z,102489.72
2024-01-29T23:34:46.213Z,102493.91
2024-01-29T23:37:24.178Z,102502.44
2024-01-29T23:39:53.165Z,102498.81
2024-01-29T23:42:20.440Z,102497.13
2024-01-29T23:44:48.286Z,102493.56
2024-01-29T23:47:15.380Z,102489.94
2024-01-29T23:49:42.702Z,102495.00
2024-01-29T23:52:11.924Z,102483.38
2024-01-29T23:54:40.489Z,102494.66
2024-01-29T23:57:07.596Z,102491.38
2024-01-29T23:59:34.730Z,102490.31
